Time;durP1;ratioP1;P1;durP2;ratioP2;P2;SDS_P1;SDS_P2;PMS_P1;PMS_P2;Temp;Humidity;BMP_temperature;BMP_pressure;BME280_temperature;BME280_humidity;BME280_pressure;Samples;Min_cycle;Max_cycle;Signal;HPM_P1;HPM_P2
2021/01/03 00:00:17;;;;;;;10.28;8.90;;;;;;;11.02;54.04;100705.33;1710415;82;21147;-64
2021/01/03 00:02:45;;;;;;;10.50;9.05;;;;;;;11.01;54.03;100703.67;1709764;82;21156;-65
2021/01/03 00:05:18;;;;;;;10.50;7.72;;;;;;;11.01;54.03;100707.66;1710390;82;21579;-65
2021/01/03 00:07:45;;;;;;;9.43;8.08;;;;;;;11.01;54.05;100705.00;1709962;82;21164;-64
2021/01/03 00:10:13;;;;;;;10.03;8.33;;;;;;;10.99;54.05;100701.16;1726219;82;21700;-66
2021/01/03 00:12:40;;;;;;;10.65;8.60;;;;;;;10.97;54.06;100704.45;1735702;81;22254;-65
2021/01/03 00:15:13;;;;;;;10.43;8.50;;;;;;;10.99;54.06;100712.26;1734634;82;21147;-65
2021/01/03 00:17:40;;;;;;;10.75;8.28;;;;;;;10.98;54.05;100712.77;1735043;82;21622;-65
2021/01/03 00:20:12;;;;;;;8.95;7.72;;;;;;;10.96;54.09;100710.74;1735402;81;21191;-65
2021/01/03 00:22:40;;;;;;;10.30;8.48;;;;;;;10.96;54.09;100711.24;1734855;81;21387;-64
2021/01/03 00:25:09;;;;;;;9.95;8.30;;;;;;;10.96;54.09;100716.56;1735397;82;21668;-66
2021/01/03 00:27:37;;;;;;;8.88;7.95;;;;;;;10.95;54.10;100721.05;1734560;82;21608;-64
2021/01/03 00:30:07;;;;;;;10.70;8.23;;;;;;;10.95;54.11;100724.17;1734644;82;21137;-66
2021/01/03 00:32:34;;;;;;;10.05;8.53;;;;;;;10.94;54.13;100722.02;1734584;81;21165;-65
2021/01/03 00:35:04;;;;;;;9.30;7.83;;;;;;;10.95;54.11;100725.51;1729044;82;21249;-65
2021/01/03 00:37:32;;;;;;;10.20;8.30;;;;;;;10.94;54.12;100718.53;1703395;82;21153;-65
2021/01/03 00:39:59;;;;;;;10.10;8.55;;;;;;;10.94;54.11;100713.22;1725654;82;21208;-63
2021/01/03 00:42:27;;;;;;;10.18;8.03;;;;;;;10.94;54.12;100722.52;1735886;82;21178;-65
2021/01/03 00:44:54;;;;;;;10.13;8.00;;;;;;;10.93;54.12;100715.05;1735021;82;21348;-63
2021/01/03 00:47:21;;;;;;;9.88;7.97;;;;;;;10.92;54.13;100714.69;1735274;82;21370;-63
2021/01/03 00:49:50;;;;;;;9.50;7.78;;;;;;;10.92;54.12;100708.04;1735296;82;21311;-63
2021/01/03 00:52:17;;;;;;;9.60;8.25;;;;;;;10.92;54.12;100708.54;1705790;82;21609;-64
2021/01/03 00:54:45;;;;;;;9.15;7.75;;;;;;;10.92;54.13;100700.56;1723454;82;21184;-64
2021/01/03 00:57:12;;;;;;;10.20;8.15;;;;;;;10.92;54.14;100700.56;1735177;82;21152;-64
2021/01/03 00:59:39;;;;;;;9.63;8.23;;;;;;;10.92;54.13;100702.72;1719927;82;21367;-64
2021/01/03 01:02:07;;;;;;;10.53;7.95;;;;;;;10.91;54.14;100703.69;1773809;80;21590;-64
2021/01/03 01:04:34;;;;;;;9.13;7.83;;;;;;;10.90;54.15;100702.03;1781333;80;21570;-64
2021/01/03 01:07:01;;;;;;;10.30;8.78;;;;;;;10.91;54.14;100705.52;1781256;80;21118;-65
2021/01/03 01:09:29;;;;;;;10.95;8.75;;;;;;;10.90;54.16;100699.38;1765201;80;21215;-64
2021/01/03 01:11:57;;;;;;;11.60;8.95;;;;;;;10.91;54.14;100706.34;1761398;80;21170;-65
2021/01/03 01:14:24;;;;;;;9.35;8.33;;;;;;;10.90;54.14;100707.34;1739638;81;21180;-64
2021/01/03 01:16:51;;;;;;;9.40;8.00;;;;;;;10.90;54.14;100711.84;1757896;80;21145;-64
2021/01/03 01:19:19;;;;;;;10.80;9.00;;;;;;;10.90;54.14;100707.84;1771674;81;21121;-65
2021/01/03 01:21:47;;;;;;;9.28;8.25;;;;;;;10.90;54.13;100698.55;1758598;81;21156;-65
2021/01/03 01:24:14;;;;;;;9.93;8.58;;;;;;;10.88;54.14;100701.34;1760895;80;21559;-65
2021/01/03 01:26:43;;;;;;;9.93;8.00;;;;;;;10.87;54.18;100694.34;1758541;80;21653;-65
2021/01/03 01:29:11;;;;;;;8.88;7.85;;;;;;;10.87;54.15;100703.64;1771627;81;21181;-64
2021/01/03 01:31:38;;;;;;;11.12;8.05;;;;;;;10.87;54.17;100694.34;1757844;81;21196;-64
2021/01/03 01:34:06;;;;;;;9.83;8.45;;;;;;;10.87;54.17;100690.84;1760791;80;21191;-63
2021/01/03 01:36:34;;;;;;;9.45;8.28;;;;;;;10.86;54.17;100690.52;1774087;80;21359;-65
2021/01/03 01:39:01;;;;;;;9.23;8.18;;;;;;;10.86;54.17;100691.35;1774501;80;21896;-66
2021/01/03 01:41:28;;;;;;;9.28;7.50;;;;;;;10.85;54.16;100695.48;1760531;81;21168;-65
2021/01/03 01:43:55;;;;;;;9.90;7.92;;;;;;;10.85;54.18;100698.14;1742467;80;21568;-65
2021/01/03 01:46:34;;;;;;;9.05;7.97;;;;;;;10.85;54.18;100696.81;1772021;80;21134;-64
2021/01/03 01:49:05;;;;;;;9.23;7.60;;;;;;;10.84;54.19;100696.48;1775490;80;21473;-65
2021/01/03 01:51:39;;;;;;;9.90;8.00;;;;;;;10.84;54.18;100691.16;1759940;81;21176;-64
2021/01/03 01:54:17;;;;;;;10.40;8.25;;;;;;;10.82;54.20;100700.61;1737351;81;22102;-64
2021/01/03 01:57:00;;;;;;;9.30;7.87;;;;;;;10.81;54.20;100697.09;1759952;80;21589;-65
2021/01/03 02:00:12;;;;;;;9.00;7.33;;;;;;;10.83;54.25;100695.62;1789055;78;28635;-64
2021/01/03 02:02:53;;;;;;;9.93;8.70;;;;;;;10.79;54.23;100703.55;1778229;80;21149;-64
2021/01/03 02:05:41;;;;;;;9.48;8.48;;;;;;;10.77;54.30;100704.18;1786289;79;21178;-65
2021/01/03 02:08:20;;;;;;;10.03;8.38;;;;;;;10.75;54.31;100706.15;1811593;77;21590;-65
2021/01/03 02:10:48;;;;;;;8.63;7.30;;;;;;;10.74;54.33;100709.31;1769810;79;21131;-65
2021/01/03 02:13:26;;;;;;;9.33;7.58;;;;;;;10.71;54.34;100709.59;1822110;78;21145;-65
2021/01/03 02:15:58;;;;;;;9.75;8.10;;;;;;;10.72;54.37;100709.09;1782281;79;21159;-65
2021/01/03 02:18:26;;;;;;;9.08;7.58;;;;;;;10.72;54.35;100717.06;1767633;78;21191;-65
2021/01/03 02:21:28;;;;;;;9.88;8.15;;;;;;;10.71;54.37;100713.57;1723350;79;21004;-65
2021/01/03 02:24:21;;;;;;;8.63;7.28;;;;;;;10.71;54.37;100714.90;1771729;78;21135;-63
2021/01/03 02:26:53;;;;;;;9.48;7.75;;;;;;;10.69;54.40;100717.37;1790796;78;21615;-64
2021/01/03 02:29:21;;;;;;;9.85;7.97;;;;;;;10.68;54.41;100714.34;1802362;79;21136;-64
2021/01/03 02:31:52;;;;;;;9.48;7.75;;;;;;;10.67;54.42;100706.88;1800391;78;21382;-64
2021/01/03 02:34:27;;;;;;;8.65;7.67;;;;;;;10.67;54.46;100713.52;1802216;78;21231;-65
2021/01/03 02:37:11;;;;;;;9.13;8.10;;;;;;;10.67;54.43;100715.34;1802371;79;21164;-64
2021/01/03 02:39:47;;;;;;;;;;;;;;;10.67;54.43;100709.53;1780747;79;21127;-65
2021/01/03 02:42:22;;;;;;;8.13;7.22;;;;;;;10.66;54.45;100707.84;1801417;78;20281;-64
2021/01/03 02:44:49;;;;;;;9.05;7.72;;;;;;;10.59;54.55;100708.09;1777904;78;22057;-65
2021/01/03 02:47:21;;;;;;;9.80;7.75;;;;;;;10.60;54.55;100705.30;1802305;78;21167;-65
2021/01/03 02:49:48;;;;;;;9.85;8.40;;;;;;;10.60;54.53;100702.64;1766074;79;21170;-65
2021/01/03 02:52:20;;;;;;;9.78;7.80;;;;;;;10.62;54.51;100709.12;1781348;78;21119;-65
2021/01/03 02:54:48;;;;;;;9.33;7.70;;;;;;;10.63;54.49;100720.11;1799094;78;21132;-64
2021/01/03 02:57:15;;;;;;;9.48;8.23;;;;;;;10.63;54.48;100708.98;1770656;78;21443;-65
2021/01/03 02:59:42;;;;;;;8.20;7.15;;;;;;;10.64;54.47;100704.50;1792948;78;21168;-65
2021/01/03 03:02:09;;;;;;;9.33;7.85;;;;;;;10.63;54.43;100707.66;1736935;81;21064;-64
2021/01/03 03:04:37;;;;;;;10.08;8.20;;;;;;;10.64;54.44;100715.13;1750315;81;21169;-65
2021/01/03 03:07:04;;;;;;;8.95;7.70;;;;;;;10.65;54.41;100706.69;1757652;80;21127;-65
2021/01/03 03:09:31;;;;;;;9.38;7.53;;;;;;;10.67;54.39;100708.70;1774435;80;21192;-63
2021/01/03 03:11:59;;;;;;;10.63;7.62;;;;;;;10.67;54.38;100719.34;1783709;80;21189;-65
2021/01/03 03:14:27;;;;;;;10.28;8.80;;;;;;;10.66;54.35;100718.47;1757264;80;21159;-64
2021/01/03 03:16:58;;;;;;;9.00;7.40;;;;;;;10.67;54.34;100714.84;1757294;80;21142;-65
2021/01/03 03:19:26;;;;;;;9.18;8.03;;;;;;;10.68;54.32;100718.34;1757305;80;21151;-64
2021/01/03 03:21:53;;;;;;;10.03;8.18;;;;;;;10.68;54.32;100717.00;1757413;80;21139;-65
2021/01/03 03:24:21;;;;;;;9.98;7.92;;;;;;;10.68;54.25;100717.87;1757335;80;21212;-64
2021/01/03 03:26:54;;;;;;;8.78;7.87;;;;;;;10.70;54.28;100729.66;1757307;80;21634;-64
2021/01/03 03:29:22;;;;;;;10.45;8.40;;;;;;;10.69;54.24;100716.87;1766793;80;21704;-63
2021/01/03 03:31:51;;;;;;;10.50;8.43;;;;;;;10.68;54.22;100716.54;1769288;80;21127;-64
2021/01/03 03:34:19;;;;;;;10.28;7.85;;;;;;;10.68;54.22;100718.34;1738162;81;21210;-64
2021/01/03 03:36:46;;;;;;;10.95;8.20;;;;;;;10.68;54.22;100717.00;1754846;80;21207;-63
2021/01/03 03:39:14;;;;;;;9.18;8.15;;;;;;;10.68;54.20;100711.69;1762392;80;21147;-64
2021/01/03 03:41:41;;;;;;;9.68;8.45;;;;;;;10.69;54.18;100718.70;1773729;80;21137;-64
2021/01/03 03:44:09;;;;;;;8.73;7.53;;;;;;;10.68;54.18;100713.88;1757332;80;21179;-64
2021/01/03 03:46:36;;;;;;;10.18;8.68;;;;;;;10.68;54.15;100709.89;1763604;80;21332;-65
2021/01/03 03:49:04;;;;;;;8.78;7.87;;;;;;;10.68;54.16;100713.88;1772293;80;21164;-66
2021/01/03 03:51:31;;;;;;;10.68;8.63;;;;;;;10.68;54.14;100725.84;1757343;80;21169;-65
2021/01/03 03:53:58;;;;;;;9.23;8.28;;;;;;;10.68;54.14;100728.50;1757362;80;21587;-65
2021/01/03 03:56:25;;;;;;;9.53;6.97;;;;;;;10.68;54.11;100725.84;1757332;80;21159;-64
2021/01/03 03:58:53;;;;;;;9.35;8.23;;;;;;;10.68;54.11;100723.18;1756810;80;21373;-63
2021/01/03 04:01:20;;;;;;;8.93;7.28;;;;;;;10.68;54.10;100723.65;1772744;80;22017;-64
2021/01/03 04:03:47;;;;;;;9.65;8.40;;;;;;;10.67;54.09;100719.34;1759175;80;21165;-64
2021/01/03 04:06:15;;;;;;;8.35;7.47;;;;;;;10.67;54.09;100716.68;1821718;77;21150;-63
2021/01/03 04:08:42;;;;;;;8.83;7.40;;;;;;;10.67;54.09;100725.48;1821716;77;21734;-64
2021/01/03 04:11:09;;;;;;;9.40;7.50;;;;;;;10.66;54.10;100723.79;1821682;78;22707;-64
2021/01/03 04:13:37;;;;;;;9.55;7.75;;;;;;;10.66;54.09;100725.62;1821572;77;21136;-62
2021/01/03 04:16:07;;;;;;;9.75;8.15;;;;;;;10.66;54.08;100732.27;1821695;78;21093;-64
2021/01/03 04:18:34;;;;;;;9.13;7.55;;;;;;;10.65;54.07;100734.09;1821521;77;21091;-64
2021/01/03 04:21:01;;;;;;;10.40;8.33;;;;;;;10.65;54.08;100732.77;1821647;78;21165;-64
2021/01/03 04:23:31;;;;;;;9.08;7.67;;;;;;;10.65;54.06;100732.77;1821700;78;21263;-64
2021/01/03 04:25:59;;;;;;;9.03;7.95;;;;;;;10.65;54.07;100730.10;1832256;77;21644;-65
2021/01/03 04:28:28;;;;;;;9.93;8.05;;;;;;;10.65;54.07;100736.75;1833822;77;21104;-66
2021/01/03 04:30:55;;;;;;;8.68;7.47;;;;;;;10.64;54.05;100733.73;1821613;77;21152;-64
2021/01/03 04:33:22;;;;;;;8.38;7.53;;;;;;;10.64;54.08;100739.05;1840163;77;21120;-64
2021/01/03 04:35:50;;;;;;;8.75;7.85;;;;;;;10.63;54.08;100730.73;1826096;77;21188;-64
2021/01/03 04:38:18;;;;;;;9.00;7.12;;;;;;;10.62;54.07;100737.88;1821492;78;21173;-65
2021/01/03 04:40:45;;;;;;;9.73;8.13;;;;;;;10.62;54.06;100727.25;1821543;78;21145;-63
2021/01/03 04:43:16;;;;;;;9.60;8.00;;;;;;;10.63;54.06;100737.38;1821602;77;21161;-64
2021/01/03 04:45:45;;;;;;;9.85;8.10;;;;;;;10.62;54.08;100731.23;1821710;77;21129;-65
2021/01/03 04:48:21;;;;;;;8.80;7.58;;;;;;;10.61;54.09;100730.05;1821637;77;21358;-66
2021/01/03 04:51:03;;;;;;;9.08;7.47;;;;;;;10.61;54.08;100729.55;1821702;77;21151;-64
2021/01/03 04:53:57;;;;;;;8.48;7.55;;;;;;;10.60;54.10;100745.16;1821597;77;21113;-64
2021/01/03 04:56:39;;;;;;;9.88;7.87;;;;;;;10.59;54.11;100739.98;1821625;77;21168;-64
2021/01/03 04:59:28;;;;;;;9.30;7.35;;;;;;;10.57;54.13;100733.98;1819735;78;21149;-64
2021/01/03 05:02:33;;;;;;;8.53;7.40;;;;;;;10.56;54.14;100732.29;1819345;78;21195;-66
2021/01/03 05:05:27;;;;;;;10.80;9.03;;;;;;;10.55;54.19;100734.61;1819016;77;21168;-64
2021/01/03 05:08:26;;;;;;;9.85;7.78;;;;;;;10.52;54.23;100741.03;1819351;78;21152;-64
2021/01/03 05:10:53;;;;;;;9.53;7.50;;;;;;;10.51;54.24;100734.56;1819296;77;21103;-65
2021/01/03 05:13:35;;;;;;;9.30;7.60;;;;;;;10.49;54.26;100736.02;1819325;78;21133;-66
2021/01/03 05:16:04;;;;;;;9.43;8.03;;;;;;;10.49;54.29;100741.34;1819375;78;21205;-65
2021/01/03 05:18:32;;;;;;;8.70;7.80;;;;;;;10.48;54.31;100741.47;1819238;78;21104;-64
2021/01/03 05:21:06;;;;;;;8.78;6.80;;;;;;;10.49;54.30;100741.34;1819419;78;21149;-64
2021/01/03 05:23:29;;;;;;;8.98;7.25;;;;;;;10.49;54.30;100747.12;1819294;77;21176;-65
2021/01/03 05:25:56;;;;;;;8.68;7.28;;;;;;;10.50;54.30;100746.16;1819306;77;21156;-65
2021/01/03 05:28:28;;;;;;;8.43;7.08;;;;;;;10.49;54.30;100743.99;1819285;77;21197;-65
2021/01/03 05:31:17;;;;;;;9.15;7.42;;;;;;;10.50;54.29;100752.30;1819306;77;21164;-64
2021/01/03 05:33:57;;;;;;;9.40;7.47;;;;;;;10.50;54.26;100749.64;1819252;77;21165;-65
2021/01/03 05:36:47;;;;;;;9.18;7.15;;;;;;;10.50;54.29;100750.14;1819134;77;22112;-65
2021/01/03 05:39:26;;;;;;;9.45;7.37;;;;;;;10.49;54.27;100749.77;1819262;77;21156;-65
2021/01/03 05:42:23;;;;;;;8.23;7.05;;;;;;;10.48;54.30;100754.26;1819323;77;23508;-64
2021/01/03 05:45:05;;;;;;;8.18;6.72;;;;;;;10.47;54.29;100754.39;1819203;77;21612;-66
2021/01/03 05:47:41;;;;;;;8.33;6.80;;;;;;;10.46;54.30;100748.75;1819366;78;21120;-65
2021/01/03 05:50:32;;;;;;;8.10;6.72;;;;;;;10.45;54.31;100751.91;1819331;77;21237;-66
2021/01/03 05:53:09;;;;;;;8.08;6.45;;;;;;;10.46;54.32;100752.73;1819341;77;21166;-66
2021/01/03 05:55:38;;;;;;;8.28;6.55;;;;;;;10.45;54.33;100758.55;1819270;77;21192;-64
2021/01/03 05:58:19;;;;;;;7.62;6.62;;;;;;;10.44;54.34;100762.17;1819115;77;21136;-63
2021/01/03 06:00:47;;;;;;;8.65;6.72;;;;;;;10.46;54.33;100763.36;1819227;77;21188;-63
2021/01/03 06:03:27;;;;;;;7.58;6.30;;;;;;;10.45;54.34;100757.69;1819355;78;21132;-63
2021/01/03 06:06:18;;;;;;;7.22;5.83;;;;;;;10.45;54.31;100761.67;1819438;77;21181;-64
2021/01/03 06:08:46;;;;;;;7.95;6.83;;;;;;;10.44;54.33;100760.84;1819271;77;21184;-63
2021/01/03 06:11:20;;;;;;;8.00;6.78;;;;;;;10.43;54.31;100761.34;1819223;77;21185;-64
2021/01/03 06:13:53;;;;;;;6.40;5.58;;;;;;;10.43;54.34;100766.66;1819212;78;21156;-63
2021/01/03 06:16:31;;;;;;;7.47;6.22;;;;;;;10.43;54.30;100761.34;1819410;78;21104;-65
2021/01/03 06:19:05;;;;;;;8.33;6.17;;;;;;;10.44;54.31;100764.83;1819237;77;21125;-64
2021/01/03 06:21:38;;;;;;;8.03;6.28;;;;;;;10.43;54.34;100762.66;1819271;77;21197;-64
2021/01/03 06:24:27;;;;;;;8.80;6.83;;;;;;;10.43;54.33;100762.66;1819110;77;21137;-64
2021/01/03 06:26:59;;;;;;;7.55;6.45;;;;;;;10.43;54.31;100766.66;1819267;78;21093;-64
2021/01/03 06:29:36;;;;;;;7.50;6.40;;;;;;;10.43;54.31;100767.15;1819207;78;21173;-64
2021/01/03 06:32:36;;;;;;;7.85;6.45;;;;;;;10.43;54.30;100773.30;1819254;77;21553;-64
2021/01/03 06:35:23;;;;;;;8.13;6.92;;;;;;;10.43;54.30;100766.66;1819295;77;21156;-63
2021/01/03 06:38:06;;;;;;;7.83;6.78;;;;;;;10.42;54.31;100769.44;1819311;77;21533;-64
2021/01/03 06:40:45;;;;;;;7.50;5.50;;;;;;;10.42;54.32;100765.46;1817949;77;21113;-64
2021/01/03 06:43:41;;;;;;;6.90;5.78;;;;;;;10.41;54.32;100769.94;1819254;77;21140;-63
2021/01/03 06:46:51;;;;;;;7.03;5.58;;;;;;;10.42;54.33;100774.76;1819449;77;21148;-66
2021/01/03 06:49:59;;;;;;;7.60;6.40;;;;;;;10.41;54.33;100767.28;1819492;77;21398;-65
2021/01/03 06:53:04;;;;;;;7.25;5.75;;;;;;;10.39;54.37;100769.25;1819165;77;21179;-65
2021/01/03 06:55:55;;;;;;;6.78;6.08;;;;;;;10.38;54.38;100770.21;1818748;77;21140;-65
2021/01/03 06:58:44;;;;;;;6.67;5.37;;;;;;;10.37;54.41;100769.88;1819413;77;21113;-65
2021/01/03 07:01:29;;;;;;;6.40;5.15;;;;;;;10.36;54.42;100773.50;1842173;77;21154;-66
2021/01/03 07:04:17;;;;;;;7.10;5.87;;;;;;;10.35;54.46;100777.62;1843637;77;21646;-65
2021/01/03 07:06:45;;;;;;;7.28;5.75;;;;;;;10.36;54.46;100772.67;1708148;84;21169;-66
2021/01/03 07:09:13;;;;;;;5.55;4.95;;;;;;;10.35;54.45;100775.83;1736076;82;21206;-65
2021/01/03 07:11:45;;;;;;;6.65;5.83;;;;;;;10.37;54.47;100774.33;1736004;82;21206;-64
2021/01/03 07:14:28;;;;;;;6.97;5.58;;;;;;;10.39;54.43;100775.03;1736145;82;21214;-64
2021/01/03 07:17:00;;;;;;;6.70;5.90;;;;;;;10.39;54.40;100777.22;1736175;82;21214;-66
2021/01/03 07:19:42;;;;;;;7.20;5.87;;;;;;;10.41;54.38;100782.36;1736086;82;21154;-65
2021/01/03 07:22:14;;;;;;;7.20;5.72;;;;;;;10.41;54.38;100774.39;1736182;82;21142;-65
2021/01/03 07:24:53;;;;;;;6.92;5.78;;;;;;;10.42;54.38;100776.91;1734306;82;21183;-65
2021/01/03 07:27:38;;;;;;;6.53;5.53;;;;;;;10.42;54.38;100787.54;1736119;82;21138;-65
2021/01/03 07:30:13;;;;;;;6.60;5.25;;;;;;;10.43;54.36;100773.30;1736068;82;21360;-65
2021/01/03 07:32:57;;;;;;;6.03;5.03;;;;;;;10.43;54.34;100774.62;1736137;82;21183;-64
2021/01/03 07:35:32;;;;;;;6.08;5.17;;;;;;;10.43;54.34;100764.49;1735970;82;21190;-65
2021/01/03 07:38:26;;;;;;;6.40;5.37;;;;;;;10.43;54.34;100767.98;1736120;82;21606;-64
2021/01/03 07:41:04;;;;;;;7.12;5.12;;;;;;;10.46;54.32;100770.83;1736154;82;21178;-65
2021/01/03 07:43:28;;;;;;;6.87;5.72;;;;;;;10.45;54.34;100766.52;1735801;82;21618;-65
2021/01/03 07:45:55;;;;;;;7.05;6.10;;;;;;;10.45;54.31;100769.64;1736018;82;21666;-64
2021/01/03 07:48:39;;;;;;;5.78;5.12;;;;;;;10.46;54.33;100773.98;1736056;82;21162;-65
2021/01/03 07:51:11;;;;;;;5.85;4.80;;;;;;;10.47;54.28;100771.66;1736038;82;21162;-64
2021/01/03 07:53:39;;;;;;;5.70;4.95;;;;;;;10.47;54.26;100765.88;1736039;82;21583;-64
2021/01/03 07:56:25;;;;;;;7.55;5.80;;;;;;;10.48;54.26;100766.22;1736126;82;22262;-64
2021/01/03 07:58:57;;;;;;;6.03;5.10;;;;;;;10.49;54.25;100765.25;1735775;82;21624;-64
2021/01/03 08:01:28;;;;;;;6.12;5.00;;;;;;;10.49;54.27;100762.59;1736082;82;21170;-67
2021/01/03 08:03:56;;;;;;;7.30;5.35;;;;;;;10.50;54.24;100769.56;1716525;82;21154;-65
2021/01/03 08:06:23;;;;;;;6.65;5.58;;;;;;;10.51;54.23;100763.28;1708382;82;21202;-65
2021/01/03 08:11:39;;;;;;;5.78;4.75;;;;;;;10.58;54.20;100760.38;1817291;77;28659;-63
2021/01/03 08:14:12;;;;;;;7.33;5.83;;;;;;;10.49;54.24;100765.25;1789762;78;21123;-65
2021/01/03 08:16:39;;;;;;;6.37;5.47;;;;;;;10.53;54.25;100764.48;1791917;79;22071;-65
2021/01/03 08:19:08;;;;;;;6.35;5.30;;;;;;;10.53;54.22;100765.30;1790336;78;21147;-65
2021/01/03 08:21:38;;;;;;;6.22;5.08;;;;;;;10.55;54.18;100763.84;1792704;78;21119;-65
2021/01/03 08:24:13;;;;;;;5.58;5.00;;;;;;;10.57;54.17;100775.16;1788449;79;21134;-65
2021/01/03 08:26:54;;;;;;;7.92;6.12;;;;;;;10.57;54.11;100775.16;1806731;77;21154;-65
2021/01/03 08:29:48;;;;;;;6.45;5.10;;;;;;;10.59;54.10;100776.69;1822405;77;21182;-64
2021/01/03 08:32:21;;;;;;;6.70;5.50;;;;;;;10.60;54.10;100772.20;1822571;77;21155;-64
2021/01/03 08:34:48;;;;;;;;;;;;;;;10.60;54.11;100770.88;1825172;78;21143;-64
2021/01/03 08:37:26;;;;;;;5.72;4.65;;;;;;;10.60;54.07;100776.19;1822433;77;20216;-63
2021/01/03 08:39:54;;;;;;;6.75;5.10;;;;;;;10.54;54.15;100780.25;1822460;77;21159;-65
2021/01/03 08:42:29;;;;;;;7.08;5.40;;;;;;;10.56;54.14;100790.24;1822338;77;21615;-64
2021/01/03 08:44:58;;;;;;;6.53;5.58;;;;;;;10.58;54.11;100792.77;1822373;77;21111;-65
2021/01/03 08:47:38;;;;;;;6.47;5.50;;;;;;;10.60;54.09;100777.52;1822341;78;21139;-64
2021/01/03 08:50:19;;;;;;;6.33;5.17;;;;;;;10.61;54.06;100777.38;1822348;77;21127;-64
2021/01/03 08:53:06;;;;;;;6.90;5.15;;;;;;;10.63;54.01;100774.58;1822384;77;21582;-64
2021/01/03 08:55:36;;;;;;;6.53;4.90;;;;;;;10.64;54.01;100786.88;1822316;77;21267;-64
2021/01/03 08:58:07;;;;;;;6.58;5.15;;;;;;;10.65;53.99;100779.77;1822264;77;21071;-65
2021/01/03 09:00:39;;;;;;;6.08;4.97;;;;;;;10.65;53.99;100774.45;1822352;77;21104;-65
2021/01/03 09:03:21;;;;;;;5.70;4.95;;;;;;;10.66;53.98;100791.55;1796025;78;21154;-65
2021/01/03 09:05:50;;;;;;;6.12;4.87;;;;;;;10.67;53.96;100781.28;1822466;77;21131;-64
2021/01/03 09:08:34;;;;;;;6.78;5.67;;;;;;;10.67;53.93;100775.97;1822324;77;21185;-64
2021/01/03 09:11:25;;;;;;;6.95;5.65;;;;;;;10.68;53.94;100782.98;1797451;78;21569;-66
2021/01/03 09:14:09;;;;;;;6.22;5.03;;;;;;;10.70;53.89;100777.49;1764369;79;21155;-64
2021/01/03 09:16:55;;;;;;;;;;;;;;;10.70;53.88;100788.98;1766515;79;21254;-65
2021/01/03 09:19:30;;;;;;;6.08;5.22;;;;;;;10.70;53.88;100786.33;1783736;79;20216;-64
2021/01/03 09:22:00;;;;;;;6.72;5.35;;;;;;;10.63;53.98;100798.00;1763996;81;21358;-66
2021/01/03 09:24:30;;;;;;;7.20;5.80;;;;;;;10.65;53.99;100787.73;1763700;80;21159;-64
2021/01/03 09:26:59;;;;;;;6.17;5.35;;;;;;;10.66;53.96;100792.88;1763848;80;21144;-65
2021/01/03 09:29:34;;;;;;;6.30;5.67;;;;;;;10.68;53.93;100804.23;1763720;80;21175;-65
2021/01/03 09:32:28;;;;;;;6.37;5.62;;;;;;;10.70;53.91;100788.98;1763332;81;21569;-65
2021/01/03 09:35:23;;;;;;;6.30;5.42;;;;;;;10.71;53.86;100800.45;1779767;79;21205;-65
2021/01/03 09:38:14;;;;;;;5.75;4.87;;;;;;;10.71;53.87;100785.33;1763553;80;21688;-64
2021/01/03 09:40:47;;;;;;;5.60;4.92;;;;;;;10.70;53.88;100787.66;1763681;80;21165;-64
2021/01/03 09:43:40;;;;;;;5.67;5.00;;;;;;;10.69;53.89;100772.67;1763167;80;21181;-64
2021/01/03 09:46:25;;;;;;;5.83;5.22;;;;;;;10.71;53.91;100784.00;1763796;80;21183;-65
2021/01/03 09:48:52;;;;;;;6.12;5.12;;;;;;;10.70;53.87;100771.70;1763869;80;21304;-66
2021/01/03 09:51:35;;;;;;;5.95;5.03;;;;;;;10.70;53.88;100774.37;1763683;79;21140;-64
2021/01/03 09:54:19;;;;;;;6.50;5.47;;;;;;;10.71;53.86;100773.88;1748753;80;21164;-64
2021/01/03 09:56:50;;;;;;;5.53;4.92;;;;;;;10.70;53.83;100777.03;1755303;80;21151;-65
2021/01/03 09:59:19;;;;;;;6.78;5.78;;;;;;;10.71;53.85;100781.34;1762348;80;21141;-64
2021/01/03 10:01:48;;;;;;;8.43;6.28;;;;;;;10.72;53.83;100765.76;1763811;80;21376;-64
2021/01/03 10:04:24;;;;;;;6.55;5.10;;;;;;;10.73;53.81;100770.08;1763573;80;21171;-64
2021/01/03 10:06:57;;;;;;;6.30;5.47;;;;;;;10.75;53.79;100768.11;1763522;80;21161;-65
2021/01/03 10:09:29;;;;;;;7.62;5.92;;;;;;;10.75;53.75;100754.82;1762026;80;21317;-65
2021/01/03 10:11:57;;;;;;;6.85;5.45;;;;;;;10.76;53.80;100760.50;1753493;80;21217;-64
2021/01/03 10:14:33;;;;;;;6.60;5.67;;;;;;;10.77;53.76;100752.02;1752438;80;21476;-66
2021/01/03 10:17:16;;;;;;;6.50;5.80;;;;;;;10.78;53.73;100753.72;1752425;80;21141;-65
2021/01/03 10:19:44;;;;;;;6.80;5.90;;;;;;;10.78;53.67;100753.22;1752533;80;21681;-65
2021/01/03 10:22:36;;;;;;;6.42;5.22;;;;;;;10.79;53.66;100749.55;1752429;80;21166;-64
2021/01/03 10:25:08;;;;;;;6.28;5.08;;;;;;;10.81;53.65;100751.58;1752566;81;21164;-66
2021/01/03 10:27:36;;;;;;;6.12;4.58;;;;;;;10.81;53.63;100755.56;1752416;80;22201;-69
2021/01/03 10:30:08;;;;;;;6.87;4.55;;;;;;;10.86;57.92;100752.98;1752317;81;21185;-69
2021/01/03 10:32:37;;;;;;;5.25;4.28;;;;;;;11.29;60.36;100751.03;1752273;80;21181;-69
2021/01/03 10:35:06;;;;;;;5.30;4.50;;;;;;;11.98;60.30;100751.47;1752442;80;21733;-68
2021/01/03 10:37:33;;;;;;;6.25;5.33;;;;;;;12.55;59.57;100732.41;1752156;80;21165;-65
2021/01/03 10:40:01;;;;;;;7.12;5.47;;;;;;;13.07;58.35;100670.17;1752269;80;21207;-67
2021/01/03 10:42:28;;;;;;;7.97;6.33;;;;;;;13.50;56.86;100679.84;1752312;80;21151;-67
2021/01/03 10:44:55;;;;;;;8.83;6.60;;;;;;;13.92;55.52;100670.01;1752359;80;21174;-67
2021/01/03 10:47:22;;;;;;;8.80;6.20;;;;;;;14.30;54.42;100676.49;1752401;80;21147;-67
2021/01/03 10:49:50;;;;;;;11.00;6.42;;;;;;;14.67;53.60;100670.25;1752664;80;21148;-68
2021/01/03 10:52:17;;;;;;;10.10;6.40;;;;;;;15.00;52.95;100683.51;1752342;80;21214;-69
2021/01/03 10:54:44;;;;;;;6.90;5.83;;;;;;;15.26;52.52;100664.45;1752271;80;21563;-69
2021/01/03 10:57:11;;;;;;;7.47;6.22;;;;;;;15.49;52.12;100665.34;1752210;80;21150;-68
2021/01/03 10:59:38;;;;;;;11.48;6.17;;;;;;;15.69;51.74;100653.63;1753367;80;21167;-69
2021/01/03 11:02:06;;;;;;;8.83;6.30;;;;;;;15.90;51.30;100647.64;1752418;80;21119;-69
2021/01/03 11:04:33;;;;;;;10.32;6.60;;;;;;;16.08;50.93;100662.04;1760891;80;21381;-70
2021/01/03 11:07:01;;;;;;;8.80;6.62;;;;;;;16.25;50.57;100650.66;1752299;80;21159;-68
2021/01/03 11:09:32;;;;;;;7.00;6.00;;;;;;;16.40;50.41;100655.19;1754951;80;21228;-69
2021/01/03 11:12:10;;;;;;;7.97;6.08;;;;;;;16.56;50.36;100680.52;1736875;80;21185;-69
2021/01/03 11:14:39;;;;;;;7.10;6.37;;;;;;;16.69;50.34;100663.27;1753016;81;21191;-68
2021/01/03 11:17:12;;;;;;;10.05;6.42;;;;;;;16.84;50.19;100665.12;1749661;81;21353;-69
2021/01/03 11:19:39;;;;;;;6.83;5.92;;;;;;;16.97;49.95;100658.58;1760568;81;21167;-68
2021/01/03 11:22:09;;;;;;;7.75;6.05;;;;;;;17.08;49.61;100652.73;1753103;81;21187;-68
2021/01/03 11:24:38;;;;;;;8.85;6.65;;;;;;;17.21;49.26;100656.09;1748222;81;21151;-70
2021/01/03 11:27:09;;;;;;;8.43;6.35;;;;;;;17.32;48.95;100653.41;1759124;81;21616;-68
2021/01/03 11:29:38;;;;;;;7.05;6.35;;;;;;;17.44;48.69;100659.11;1720404;82;21200;-69
2021/01/03 11:32:09;;;;;;;6.75;6.05;;;;;;;17.55;48.39;100655.92;1745808;81;21173;-68
2021/01/03 11:34:37;;;;;;;6.67;5.92;;;;;;;17.63;48.14;100650.93;1745604;82;21179;-69
2021/01/03 11:37:08;;;;;;;7.05;6.35;;;;;;;17.71;47.92;100648.62;1746338;82;21155;-68
2021/01/03 11:39:35;;;;;;;6.55;5.85;;;;;;;17.78;47.70;100661.62;1757019;81;21131;-65
2021/01/03 11:42:10;;;;;;;6.62;5.85;;;;;;;17.84;47.46;100695.29;1724736;82;21244;-64
2021/01/03 11:44:38;;;;;;;;;;;;;;;17.85;46.83;100686.22;1771454;80;21639;-64
2021/01/03 11:47:10;;;;;;;7.87;6.12;;;;;;;17.76;46.47;100695.91;1727751;82;20225;-64
2021/01/03 11:49:37;;;;;;;9.45;5.95;;;;;;;17.54;46.61;100695.91;1754563;81;21206;-65
2021/01/03 11:52:07;;;;;;;6.55;5.60;;;;;;;17.38;46.64;100697.47;1754181;81;21155;-65
2021/01/03 11:54:35;;;;;;;5.70;5.10;;;;;;;17.21;46.73;100692.83;1761121;81;22021;-65
2021/01/03 11:57:02;;;;;;;6.45;5.83;;;;;;;17.03;46.86;100706.14;1717053;82;21161;-65